Chloride, AZ (86431)

12:23 AM MST on October 22, 2014 (GMT -0700)
Legacy | Change Station
CLOSE
Current Station
Personal Weather Station
Location: Kingman, AZ
Elevation: 3389 ft
Nearby Weather Stations

Elev 3389 ft 35.23 °N, 114.02 °W | Updated 1 second ago

Clear
Clear
59.4 °F
Feels Like 59.4 °F
N
0.0
Wind Variable Wind from SSW
Gusts 0.0 mph

Today
High -- | Low -- °F
--% Chance of Precip.
Yesterday
High -- | Low -- °F
Precip. -- in
6:49 AM 5:52 PM
Waning Crescent, 3% visible
Pressure 29.80 in
Visibility 10.0 miles
Clouds Clear
Dew Point 34 °F
Humidity 39%
Rainfall 0.00 in
Snow Depth Not available.
UV 0 out of 12
Pollen 4.70 out of 12
Air Quality Not available.
Flu Activity No Activity
METAR KIGM 220651Z AUTO 14010KT 10SM CLR 14/07 A2997 RMK AO2 SLP089 T01440067 402720133

More Conditions Fewer Conditions

Pressure 29.80 in
Visibility 10.0 miles
Clouds Clear
Dew Point 34 °F
Humidity 39%
Rainfall 0.00 in
Snow Depth Not available.
UV 0 out of 12
Pollen 4.70 out of 12
Air Quality Not available.
Flu Activity No Activity
METAR KIGM 220651Z AUTO 14010KT 10SM CLR 14/07 A2997 RMK AO2 SLP089 T01440067 402720133

More Conditions Fewer Conditions

10-Day Weather Forecast

Almanac

Astronomy

Oct. 22, 2014 Rise Set
Actual Time 6:49 AM MST 5:52 PM MST
Civil Twilight 6:23 AM MST 6:18 PM MST
Nautical Twilight 5:53 AM MST 6:48 PM MST
Astronomical Twilight 5:24 AM MST 7:17 PM MST
Moon 5:37 AM MST 5:19 PM MST
Length of Visible Light 11h 55m
Length of Day
11h 03m
Tomorrow will be 2m 5s shorter.
Waning Crescent, 3% of the Moon is Illuminated
Today
Waning Crescent
Oct 23
New
Oct 30
First Quarter
Nov 6
Full
Nov 14
Last Quarter

Community

WunderPhotos

Upload Photos

1,763,890 photos uploaded!

Nearby

Snow Depth

Station Depth Elevation
White Horse Lake 1 in 7180 ft
Snowslide Canyon 0 in 9730 ft
Fry 0 in 7200 ft
Mormon Mountain 0 in 7500 ft
Happy Jack 0 in 7630 ft

Earthquake Activity

City Distance Mag. Time & Date
No recent earthquake activity has been reported nearby.
Minimum magnitude displayed is 2.5.

Coastal Water Temperatures

Place Temperature
No Stations Reporting

Nearby Weather Stations